createdAt,value
2022-11-03T00:00:56.907Z,4.60
2022-11-03T00:03:58.681Z,2.78
2022-11-03T00:07:00.609Z,7.05
2022-11-03T00:10:02.472Z,4.85
2022-11-03T00:13:04.526Z,4.35
2022-11-03T00:16:07.476Z,2.40
2022-11-03T00:19:09.969Z,3.03
2022-11-03T00:22:11.992Z,6.13
2022-11-03T00:25:14.921Z,2.85
2022-11-03T00:28:16.718Z,8.57
2022-11-03T00:31:19.577Z,3.53
2022-11-03T00:34:21.481Z,5.20
2022-11-03T00:37:23.295Z,2.85
2022-11-03T00:40:25.020Z,2.15
2022-11-03T00:43:28.133Z,4.18
2022-11-03T00:46:30.675Z,3.47
2022-11-03T00:49:32.428Z,2.45
2022-11-03T00:52:34.151Z,3.22
2022-11-03T00:55:35.890Z,2.88
2022-11-03T00:58:37.775Z,5.10
2022-11-03T01:01:46.985Z,2.30
2022-11-03T01:05:07.845Z,5.30
2022-11-03T01:08:09.577Z,2.65
2022-11-03T01:11:32.262Z,3.55
2022-11-03T01:14:39.080Z,5.10
2022-11-03T01:17:41.546Z,6.15
2022-11-03T01:20:43.390Z,2.92
2022-11-03T01:23:45.121Z,4.65
2022-11-03T01:26:46.959Z,3.00
2022-11-03T01:29:48.814Z,4.55
2022-11-03T01:32:50.569Z,2.83
2022-11-03T01:35:55.412Z,1.58
2022-11-03T01:38:57.470Z,3.03
2022-11-03T01:41:59.401Z,3.92
2022-11-03T01:45:01.300Z,4.28
2022-11-03T01:48:02.991Z,9.77
2022-11-03T01:51:06.055Z,2.40
2022-11-03T01:54:11.784Z,2.35
2022-11-03T01:57:16.230Z,2.70
2022-11-03T02:00:18.681Z,3.25
2022-11-03T02:03:22.653Z,5.07
2022-11-03T02:06:27.097Z,1.80
2022-11-03T02:09:29.456Z,4.55
2022-11-03T02:12:32.143Z,1.58
2022-11-03T02:15:34.459Z,3.85
2022-11-03T02:18:36.317Z,4.35
2022-11-03T02:21:45.647Z,3.22
2022-11-03T02:25:00.242Z,2.83
2022-11-03T02:28:03.091Z,2.88
2022-11-03T02:31:36.122Z,4.03
2022-11-03T02:34:47.255Z,10.60
2022-11-03T02:37:53.133Z,5.22
2022-11-03T02:40:58.914Z,1.00
2022-11-03T02:44:01.357Z,2.88
2022-11-03T02:47:07.304Z,14.52
2022-11-03T02:50:10.737Z,4.38
2022-11-03T02:53:14.018Z,4.03
2022-11-03T02:56:20.646Z,3.45
2022-11-03T02:59:28.192Z,5.25
2022-11-03T03:02:38.493Z,3.63
2022-11-03T03:05:41.675Z,3.08
2022-11-03T03:08:49.040Z,1.30
2022-11-03T03:11:52.079Z,1.65
2022-11-03T03:14:58.364Z,8.80
2022-11-03T03:18:23.680Z,1.23
2022-11-03T03:21:33.730Z,5.45
2022-11-03T03:25:00.180Z,1.38
2022-11-03T03:28:18.837Z,3.30
2022-11-03T03:31:21.884Z,3.28
2022-11-03T03:34:34.712Z,2.20
2022-11-03T03:37:40.908Z,1.77
2022-11-03T03:40:44.355Z,2.25
2022-11-03T03:43:46.592Z,3.67
2022-11-03T03:46:57.352Z,3.72
2022-11-03T03:49:59.292Z,1.73
2022-11-03T03:53:02.510Z,1.38
2022-11-03T03:56:05.961Z,2.72
2022-11-03T03:59:08.573Z,2.50
2022-11-03T04:02:11.705Z,3.40
2022-11-03T04:05:13.743Z,2.17
2022-11-03T04:08:17.151Z,1.88
2022-11-03T04:11:37.449Z,1.50
2022-11-03T04:14:57.839Z,1.95
2022-11-03T04:18:18.186Z,2.00
2022-11-03T04:21:38.744Z,3.58
2022-11-03T04:24:40.623Z,3.20
2022-11-03T04:27:42.365Z,2.72
2022-11-03T04:30:44.137Z,2.78
2022-11-03T04:33:46.442Z,2.72
2022-11-03T04:36:48.223Z,4.40
2022-11-03T04:39:50.213Z,5.90
2022-11-03T04:42:52.146Z,3.95
2022-11-03T04:45:53.862Z,4.10
2022-11-03T04:48:59.625Z,3.20
2022-11-03T04:52:01.589Z,2.92
2022-11-03T04:55:06.522Z,7.22
2022-11-03T04:58:28.059Z,3.05
2022-11-03T05:01:30.164Z,2.80
2022-11-03T05:04:32.172Z,1.42
2022-11-03T05:07:35.405Z,2.88
2022-11-03T05:10:37.575Z,2.40
2022-11-03T05:13:39.343Z,2.30
2022-11-03T05:16:41.904Z,2.00
2022-11-03T05:19:44.212Z,2.05
2022-11-03T05:22:50.878Z,1.95
2022-11-03T05:25:54.764Z,2.05
2022-11-03T05:29:24.606Z,3.50
2022-11-03T05:32:29.461Z,2.42
2022-11-03T05:35:31.946Z,1.17
2022-11-03T05:38:35.287Z,3.90
2022-11-03T05:41:38.497Z,1.35
2022-11-03T05:44:40.977Z,2.08
2022-11-03T05:47:42.910Z,1.25
2022-11-03T05:50:44.817Z,0.88
2022-11-03T05:53:50.870Z,2.35
2022-11-03T05:56:53.583Z,2.22
2022-11-03T05:59:56.001Z,1.58
2022-11-03T06:03:00.354Z,1.05
2022-11-03T06:06:02.643Z,1.60
2022-11-03T06:09:14.067Z,2.03
2022-11-03T06:12:19.571Z,1.48
2022-11-03T06:15:33.472Z,6.82
2022-11-03T06:18:37.428Z,0.68
2022-11-03T06:21:44.433Z,1.08
2022-11-03T06:24:47.523Z,1.50
2022-11-03T06:27:52.192Z,1.23
2022-11-03T06:30:54.621Z,2.78
2022-11-03T06:33:58.111Z,1.25
2022-11-03T06:37:12.662Z,3.92
2022-11-03T06:40:15.665Z,11.52
2022-11-03T06:43:28.258Z,5.50
2022-11-03T06:46:31.353Z,2.92
2022-11-03T06:49:35.168Z,2.67
2022-11-03T06:52:44.036Z,2.75
2022-11-03T06:55:47.310Z,7.47
2022-11-03T06:58:51.531Z,3.55
2022-11-03T07:01:56.185Z,4.53
2022-11-03T07:04:58.930Z,5.32
2022-11-03T07:08:04.294Z,3.50
2022-11-03T07:11:15.293Z,3.60
2022-11-03T07:14:22.554Z,3.40
2022-11-03T07:17:26.786Z,3.25
2022-11-03T07:20:29.891Z,4.30
2022-11-03T07:23:31.852Z,3.35
2022-11-03T07:26:34.812Z,3.17
2022-11-03T07:29:37.444Z,3.42
2022-11-03T07:32:40.314Z,4.93
2022-11-03T07:36:13.211Z,6.18
2022-11-03T07:39:06.664Z,3.28
2022-11-03T07:42:19.489Z,6.35
2022-11-03T07:45:42.920Z,9.35
2022-11-03T07:48:47.119Z,9.77
2022-11-03T07:51:51.227Z,12.70
2022-11-03T07:54:55.309Z,12.00
2022-11-03T07:57:58.214Z,8.05
2022-11-03T08:01:01.598Z,4.18
2022-11-03T08:04:06.621Z,10.68
2022-11-03T08:07:10.275Z,8.10
2022-11-03T08:10:14.044Z,5.38
2022-11-03T08:13:17.672Z,3.83
2022-11-03T08:16:20.645Z,4.97
2022-11-03T08:19:23.085Z,3.03
2022-11-03T08:22:26.356Z,8.30
2022-11-03T08:25:29.077Z,3.63
2022-11-03T08:28:32.751Z,6.15
2022-11-03T08:31:35.443Z,4.35
2022-11-03T08:34:39.886Z,7.22
2022-11-03T08:37:42.404Z,4.78
2022-11-03T08:40:44.585Z,10.73
2022-11-03T08:43:47.439Z,3.45
2022-11-03T08:46:50.387Z,3.58
2022-11-03T08:49:52.535Z,3.42
2022-11-03T08:52:54.960Z,5.43
2022-11-03T08:55:58.173Z,3.05
2022-11-03T08:59:00.343Z,4.55
2022-11-03T09:02:02.836Z,4.07
2022-11-03T09:05:06.149Z,2.75
2022-11-03T09:11:32.058Z,7.78
2022-11-03T09:14:34.288Z,3.97
2022-11-03T09:17:36.675Z,7.35
2022-11-03T09:20:39.831Z,7.18
2022-11-03T09:23:45.021Z,3.45
2022-11-03T09:26:46.895Z,3.63
2022-11-03T09:30:12.289Z,5.90
2022-11-03T09:33:18.895Z,4.80
2022-11-03T09:36:21.029Z,4.35
2022-11-03T09:39:23.127Z,3.05
2022-11-03T09:42:25.700Z,2.00
2022-11-03T09:45:27.904Z,5.78
2022-11-03T09:48:30.438Z,6.70
2022-11-03T09:51:32.817Z,5.05
2022-11-03T09:54:35.292Z,4.15
2022-11-03T09:57:37.345Z,3.25
2022-11-03T10:00:39.844Z,3.10
2022-11-03T10:03:42.065Z,2.33
2022-11-03T10:06:44.314Z,3.00
2022-11-03T10:09:48.420Z,2.78
2022-11-03T10:12:53.416Z,5.93
2022-11-03T10:15:56.473Z,4.22
2022-11-03T10:18:58.486Z,5.15
2022-11-03T10:22:00.443Z,2.55
2022-11-03T10:25:30.548Z,4.57
2022-11-03T10:28:32.588Z,1.98
2022-11-03T10:31:39.825Z,4.15
2022-11-03T10:34:42.143Z,1.85
2022-11-03T10:37:45.069Z,4.38
2022-11-03T10:40:48.524Z,2.00
2022-11-03T10:44:05.653Z,5.75
2022-11-03T10:47:42.318Z,3.40
2022-11-03T10:50:45.019Z,3.45
2022-11-03T10:53:46.853Z,2.08
2022-11-03T10:56:51.057Z,2.92
2022-11-03T10:59:54.514Z,5.15
2022-11-03T11:03:00.105Z,2.58
2022-11-03T11:06:02.330Z,3.15
2022-11-03T11:09:05.451Z,3.85
2022-11-03T11:12:17.945Z,5.03
2022-11-03T11:15:35.300Z,4.32
2022-11-03T11:19:00.193Z,2.67
2022-11-03T11:22:13.364Z,4.28
2022-11-03T11:25:16.166Z,2.97
2022-11-03T11:28:19.668Z,4.25
2022-11-03T11:31:27.449Z,2.55
2022-11-03T11:34:35.473Z,6.43
2022-11-03T11:37:38.531Z,12.30
2022-11-03T11:40:50.540Z,3.55
2022-11-03T11:43:54.709Z,2.45
2022-11-03T11:46:56.765Z,5.13
2022-11-03T11:50:09.141Z,2.10
2022-11-03T11:53:13.033Z,2.97
2022-11-03T11:56:16.724Z,9.25
2022-11-03T11:59:25.346Z,4.88
2022-11-03T12:02:30.623Z,2.58
2022-11-03T12:05:34.356Z,4.28
2022-11-03T12:08:36.525Z,4.57
2022-11-03T12:11:56.792Z,4.32
2022-11-03T12:15:00.812Z,4.15
2022-11-03T12:18:39.099Z,3.60
2022-11-03T12:21:48.266Z,5.25
2022-11-03T12:24:58.782Z,3.65
2022-11-03T12:28:01.816Z,5.82
2022-11-03T12:31:04.974Z,4.65
2022-11-03T12:34:07.377Z,6.03
2022-11-03T12:37:10.166Z,4.93
2022-11-03T12:40:14.737Z,3.70
2022-11-03T12:43:17.539Z,4.60
2022-11-03T12:46:21.721Z,5.22
2022-11-03T12:49:23.695Z,4.78
2022-11-03T12:52:25.627Z,6.25
2022-11-03T12:58:30.674Z,7.97
2022-11-03T13:01:33.629Z,3.67
2022-11-03T13:04:35.810Z,9.70
2022-11-03T13:07:38.352Z,3.92
2022-11-03T13:10:41.197Z,4.82
2022-11-03T13:13:44.254Z,6.07
2022-11-03T13:16:46.828Z,4.88
2022-11-03T13:19:54.469Z,5.50
2022-11-03T13:22:57.870Z,4.32
2022-11-03T13:26:00.209Z,5.05
2022-11-03T13:29:02.480Z,7.32
2022-11-03T13:32:05.560Z,4.25
2022-11-03T13:35:12.487Z,5.32
2022-11-03T13:38:16.406Z,3.22
2022-11-03T13:41:18.972Z,6.50
2022-11-03T13:44:21.745Z,6.53
2022-11-03T13:47:34.385Z,5.32
2022-11-03T13:50:47.513Z,3.17
2022-11-03T14:00:35.277Z,3.28
2022-11-03T14:07:00.166Z,7.07
2022-11-03T14:10:04.013Z,4.13
2022-11-03T14:13:08.302Z,6.35
2022-11-03T14:16:11.434Z,3.17
2022-11-03T14:19:13.450Z,3.90
2022-11-03T14:22:15.554Z,5.90
2022-11-03T14:25:20.468Z,10.00
2022-11-03T14:28:26.228Z,14.68
2022-11-03T14:31:29.208Z,4.82
2022-11-03T14:34:31.480Z,7.25
2022-11-03T14:37:33.885Z,3.95
2022-11-03T14:40:54.842Z,6.25
2022-11-03T14:43:57.338Z,23.48
2022-11-03T14:47:01.787Z,9.52
2022-11-03T14:50:05.490Z,6.05
2022-11-03T14:53:08.337Z,4.13
2022-11-03T14:56:12.264Z,7.38
2022-11-03T14:59:14.528Z,6.07
2022-11-03T15:02:17.469Z,7.28
2022-11-03T15:05:45.868Z,7.55
2022-11-03T15:08:53.446Z,6.03
2022-11-03T15:11:58.377Z,5.43
2022-11-03T15:15:04.506Z,4.45
2022-11-03T15:18:08.000Z,5.13
2022-11-03T15:21:10.314Z,4.68
2022-11-03T15:27:39.044Z,5.50
2022-11-03T15:30:41.477Z,4.93
2022-11-03T15:33:43.436Z,12.77
2022-11-03T15:36:45.628Z,6.53
2022-11-03T15:39:47.851Z,7.47
2022-11-03T15:42:49.960Z,5.47
2022-11-03T15:45:52.133Z,8.35
2022-11-03T15:48:56.757Z,6.75
2022-11-03T15:51:58.714Z,8.23
2022-11-03T15:55:00.609Z,7.93
2022-11-03T15:58:02.797Z,8.63
2022-11-03T16:01:05.682Z,9.20
2022-11-03T16:04:07.793Z,6.85
2022-11-03T16:07:09.688Z,10.15
2022-11-03T16:10:17.958Z,5.82
2022-11-03T16:13:19.898Z,8.45
2022-11-03T16:16:22.254Z,9.25
2022-11-03T16:19:24.261Z,9.50
2022-11-03T16:22:27.100Z,6.43
2022-11-03T16:25:29.211Z,9.23
2022-11-03T16:28:31.606Z,11.98
2022-11-03T16:31:33.458Z,6.80
2022-11-03T16:34:35.227Z,9.00
2022-11-03T16:37:37.742Z,7.18
2022-11-03T16:40:39.793Z,7.38
2022-11-03T16:43:41.800Z,9.25
2022-11-03T16:46:43.647Z,9.93
2022-11-03T16:49:45.974Z,6.88
2022-11-03T16:52:49.362Z,15.38
2022-11-03T16:55:51.350Z,10.90
2022-11-03T16:58:53.240Z,7.82
2022-11-03T17:01:57.450Z,10.07
2022-11-03T17:04:59.367Z,12.48
2022-11-03T17:08:02.397Z,12.25
2022-11-03T17:11:04.545Z,10.30
2022-11-03T17:14:09.296Z,8.27
2022-11-03T17:17:11.581Z,9.48
2022-11-03T17:20:13.660Z,12.50
2022-11-03T17:23:16.048Z,8.82
2022-11-03T17:26:21.750Z,9.02
2022-11-03T17:29:31.707Z,15.57
2022-11-03T17:32:39.665Z,11.25
2022-11-03T17:35:43.257Z,10.25
2022-11-03T17:38:45.489Z,11.05
2022-11-03T17:41:47.834Z,13.02
2022-11-03T17:44:51.268Z,11.45
2022-11-03T17:47:54.305Z,10.48
2022-11-03T17:50:56.589Z,10.55
2022-11-03T17:53:59.390Z,12.35
2022-11-03T17:57:02.962Z,11.65
2022-11-03T18:00:06.071Z,10.57
2022-11-03T18:03:15.276Z,8.90
2022-11-03T18:06:19.512Z,8.43
2022-11-03T18:09:22.107Z,9.30
2022-11-03T18:12:45.818Z,8.60
2022-11-03T18:15:52.988Z,9.95
2022-11-03T18:18:55.407Z,8.50
2022-11-03T18:21:57.912Z,9.10
2022-11-03T18:25:00.289Z,10.18
2022-11-03T18:28:02.837Z,8.02
2022-11-03T18:31:06.700Z,16.85
2022-11-03T18:34:31.624Z,12.15
2022-11-03T18:37:35.938Z,10.70
2022-11-03T18:40:41.068Z,11.45
2022-11-03T18:43:43.347Z,11.82
2022-11-03T18:46:48.555Z,11.82
2022-11-03T18:49:54.667Z,9.65
2022-11-03T18:52:59.834Z,13.45
2022-11-03T18:56:02.556Z,10.93
2022-11-03T18:59:05.233Z,11.05
2022-11-03T19:02:15.666Z,9.98
2022-11-03T19:05:19.027Z,13.25
2022-11-03T19:08:41.184Z,10.25
2022-11-03T19:11:43.987Z,12.98
2022-11-03T19:14:49.054Z,11.85
2022-11-03T19:17:58.337Z,18.73
2022-11-03T19:21:02.217Z,14.10
2022-11-03T19:24:05.139Z,11.52
2022-11-03T19:27:17.068Z,10.98
2022-11-03T19:30:21.524Z,13.10
2022-11-03T19:33:33.958Z,11.57
2022-11-03T19:36:43.719Z,15.35
2022-11-03T19:39:49.014Z,12.25
2022-11-03T19:42:52.527Z,15.50
2022-11-03T19:45:59.614Z,16.23
2022-11-03T19:49:01.770Z,13.13
2022-11-03T19:52:06.434Z,13.73
2022-11-03T19:55:13.141Z,15.38
2022-11-03T19:58:19.647Z,17.10
2022-11-03T20:01:22.353Z,12.32
2022-11-03T20:04:25.032Z,11.43
2022-11-03T20:07:31.448Z,15.18
2022-11-03T20:13:40.991Z,16.77
2022-11-03T20:16:43.358Z,14.38
2022-11-03T20:19:45.715Z,15.68
2022-11-03T20:22:51.924Z,13.07
2022-11-03T20:25:54.779Z,14.02
2022-11-03T20:28:57.198Z,16.73
2022-11-03T20:31:59.741Z,17.02
2022-11-03T20:35:02.198Z,14.50
2022-11-03T20:38:04.160Z,14.63
2022-11-03T20:41:13.219Z,15.23
2022-11-03T20:44:16.785Z,14.82
2022-11-03T20:47:19.274Z,14.75
2022-11-03T20:50:21.375Z,15.52
2022-11-03T20:53:25.611Z,11.65
2022-11-03T20:56:28.547Z,13.35
2022-11-03T20:59:33.247Z,12.23
2022-11-03T21:02:38.080Z,14.32
2022-11-03T21:05:40.052Z,10.52
2022-11-03T21:08:43.613Z,17.95
2022-11-03T21:11:46.499Z,13.20
2022-11-03T21:15:07.561Z,13.95
2022-11-03T21:18:33.918Z,15.18
2022-11-03T21:21:36.551Z,16.50
2022-11-03T21:24:38.592Z,16.58
2022-11-03T21:27:42.150Z,15.82
2022-11-03T21:30:44.417Z,16.63
2022-11-03T21:33:46.721Z,10.68
2022-11-03T21:36:48.895Z,14.85
2022-11-03T21:39:50.974Z,8.52
2022-11-03T21:43:11.661Z,14.75
2022-11-03T21:46:13.571Z,12.60
2022-11-03T21:49:34.168Z,15.55
2022-11-03T21:52:36.954Z,11.65
2022-11-03T21:55:39.209Z,14.75
2022-11-03T21:58:41.658Z,12.93
2022-11-03T22:01:43.887Z,14.23
2022-11-03T22:04:46.357Z,11.88
2022-11-03T22:07:48.478Z,12.98
2022-11-03T22:10:50.816Z,13.23
2022-11-03T22:13:58.343Z,12.18
2022-11-03T22:20:20.405Z,13.77
2022-11-03T22:24:00.387Z,11.15
2022-11-03T22:27:02.372Z,14.07
2022-11-03T22:30:23.520Z,13.85
2022-11-03T22:33:26.940Z,10.88
2022-11-03T22:36:28.830Z,15.13
2022-11-03T22:39:49.306Z,12.27
2022-11-03T22:43:10.154Z,15.32
2022-11-03T22:46:14.150Z,10.77
2022-11-03T22:49:16.031Z,13.40
2022-11-03T22:52:18.018Z,14.95
2022-11-03T22:55:19.777Z,10.98
2022-11-03T22:58:24.312Z,13.85
2022-11-03T23:01:28.618Z,14.68
2022-11-03T23:04:30.574Z,11.77
2022-11-03T23:07:40.810Z,16.10
2022-11-03T23:10:43.483Z,11.93
2022-11-03T23:13:57.885Z,14.27
2022-11-03T23:16:59.567Z,9.70
2022-11-03T23:20:20.028Z,11.43
2022-11-03T23:23:40.396Z,15.98
2022-11-03T23:26:42.964Z,11.43
2022-11-03T23:29:44.864Z,10.32
2022-11-03T23:32:46.880Z,10.98
2022-11-03T23:35:48.924Z,12.02
2022-11-03T23:38:50.800Z,13.43
2022-11-03T23:41:52.668Z,12.00
2022-11-03T23:45:13.115Z,12.05
2022-11-03T23:48:33.610Z,11.95
2022-11-03T23:51:36.620Z,10.73
2022-11-03T23:54:38.570Z,11.30
2022-11-03T23:57:58.889Z,13.77
